Time;durP1;ratioP1;P1;durP2;ratioP2;P2;SDS_P1;SDS_P2;PMS_P1;PMS_P2;Temp;Humidity;BMP_temperature;BMP_pressure;BME280_temperature;BME280_humidity;BME280_pressure;Samples;Min_cycle;Max_cycle;Signal;HPM_P1;HPM_P2
2022/03/07 00:00:51;;;;;;;13.75;5.18;;;;;;;;;;4949776;28;20056;-63
2022/03/07 00:03:18;;;;;;;11.75;5.30;;;;;;;;;;4950648;28;20055;-63
2022/03/07 00:05:44;;;;;;;10.60;5.10;;;;;;;;;;4949286;28;20876;-62
2022/03/07 00:08:10;;;;;;;12.68;5.00;;;;;;;;;;4949938;28;20051;-63
2022/03/07 00:10:57;;;;;;;9.52;5.50;;;;;;;;;;4948947;28;20426;-62
2022/03/07 00:13:23;;;;;;;10.35;5.45;;;;;;;;;;4950014;28;20075;-62
2022/03/07 00:15:49;;;;;;;11.05;5.75;;;;;;;;;;4949995;28;20494;-62
2022/03/07 00:18:16;;;;;;;10.07;5.53;;;;;;;;;;4947482;28;20134;-63
2022/03/07 00:20:42;;;;;;;10.73;5.22;;;;;;;;;;4948850;28;20188;-62
2022/03/07 00:23:11;;;;;;;10.52;5.50;;;;;;;;;;4950487;28;20055;-63
2022/03/07 00:25:38;;;;;;;11.15;5.65;;;;;;;;;;4949190;28;20060;-63
2022/03/07 00:28:05;;;;;;;9.90;5.32;;;;;;;;;;4949733;28;20531;-62
2022/03/07 00:30:31;;;;;;;10.05;5.47;;;;;;;;;;4948729;28;20056;-62
2022/03/07 00:32:57;;;;;;;12.82;5.60;;;;;;;;;;4949061;28;20048;-62
2022/03/07 00:35:24;;;;;;;11.68;5.70;;;;;;;;;;4950401;28;20059;-62
2022/03/07 00:37:50;;;;;;;13.45;5.97;;;;;;;;;;4949152;28;20052;-62
2022/03/07 00:40:16;;;;;;;10.32;5.72;;;;;;;;;;4949409;28;20091;-63
2022/03/07 00:42:43;;;;;;;11.50;5.80;;;;;;;;;;4949161;28;20143;-62
2022/03/07 00:45:10;;;;;;;11.93;5.75;;;;;;;;;;4949084;28;20067;-63
2022/03/07 00:47:36;;;;;;;13.05;5.40;;;;;;;;;;4949923;28;20155;-63
2022/03/07 00:50:03;;;;;;;12.32;5.57;;;;;;;;;;4947146;28;20049;-63
2022/03/07 00:52:30;;;;;;;15.82;6.22;;;;;;;;;;4949499;28;20147;-63
2022/03/07 00:54:56;;;;;;;11.00;5.30;;;;;;;;;;4949677;28;20058;-62
2022/03/07 00:57:22;;;;;;;9.13;5.22;;;;;;;;;;4948174;28;20052;-62
2022/03/07 00:59:49;;;;;;;12.32;5.75;;;;;;;;;;4949938;28;20944;-62
2022/03/07 01:02:15;;;;;;;11.32;5.30;;;;;;;;;;4949072;28;20183;-63
2022/03/07 01:04:42;;;;;;;11.70;6.03;;;;;;;;;;4949397;28;20055;-63
2022/03/07 01:07:08;;;;;;;13.02;6.13;;;;;;;;;;4949899;28;20510;-63
2022/03/07 01:09:35;;;;;;;12.45;5.38;;;;;;;;;;4949057;28;20099;-62
2022/03/07 01:12:01;;;;;;;10.13;5.53;;;;;;;;;;4945244;28;20582;-62
2022/03/07 01:14:28;;;;;;;11.73;6.18;;;;;;;;;;4947895;28;20498;-63
2022/03/07 01:16:54;;;;;;;11.40;5.60;;;;;;;;;;4948071;28;20155;-62
2022/03/07 01:19:20;;;;;;;10.90;5.57;;;;;;;;;;4949014;28;20059;-63
2022/03/07 01:21:47;;;;;;;13.27;5.88;;;;;;;;;;4948150;28;20059;-62
2022/03/07 01:24:13;;;;;;;11.90;5.70;;;;;;;;;;4947402;28;20060;-62
2022/03/07 01:26:39;;;;;;;11.75;5.97;;;;;;;;;;4948127;28;20070;-63
2022/03/07 01:29:06;;;;;;;12.82;6.22;;;;;;;;;;4948860;28;20055;-62
2022/03/07 01:31:32;;;;;;;12.10;5.88;;;;;;;;;;4948943;28;20494;-63
2022/03/07 01:33:58;;;;;;;12.15;6.93;;;;;;;;;;4948945;28;20052;-62
2022/03/07 01:36:25;;;;;;;12.07;5.78;;;;;;;;;;4947706;28;20058;-63
2022/03/07 01:38:51;;;;;;;13.10;6.00;;;;;;;;;;4948513;28;20622;-62
2022/03/07 01:41:17;;;;;;;13.25;6.28;;;;;;;;;;4930715;28;20545;-62
2022/03/07 01:43:44;;;;;;;12.93;6.28;;;;;;;;;;4948571;28;20054;-63
2022/03/07 01:46:10;;;;;;;10.32;5.82;;;;;;;;;;4948399;28;20516;-63
2022/03/07 01:48:37;;;;;;;16.67;6.63;;;;;;;;;;4948465;28;20059;-62
2022/03/07 01:51:04;;;;;;;13.80;6.07;;;;;;;;;;4947338;28;20584;-62
2022/03/07 01:53:30;;;;;;;14.90;6.03;;;;;;;;;;4948996;28;20043;-63
2022/03/07 01:55:57;;;;;;;14.88;6.00;;;;;;;;;;4947410;28;20528;-62
2022/03/07 01:58:23;;;;;;;12.82;5.90;;;;;;;;;;4948576;28;20051;-62
2022/03/07 02:00:49;;;;;;;13.00;6.30;;;;;;;;;;4948611;28;20055;-62
2022/03/07 02:03:16;;;;;;;14.70;6.82;;;;;;;;;;4948636;28;20062;-63
2022/03/07 02:05:45;;;;;;;12.63;6.32;;;;;;;;;;4946671;28;20521;-63
2022/03/07 02:08:12;;;;;;;13.20;6.32;;;;;;;;;;4948513;28;20051;-63
2022/03/07 02:10:39;;;;;;;13.20;6.55;;;;;;;;;;4947608;28;20077;-62
2022/03/07 02:13:12;;;;;;;18.23;7.60;;;;;;;;;;4950542;28;20068;-63
2022/03/07 02:15:38;;;;;;;15.32;7.35;;;;;;;;;;4952007;28;20051;-63
2022/03/07 02:18:05;;;;;;;14.57;7.15;;;;;;;;;;4952066;28;20107;-63
2022/03/07 02:20:34;;;;;;;17.90;7.45;;;;;;;;;;4949833;28;20056;-63
2022/03/07 02:23:00;;;;;;;15.90;7.32;;;;;;;;;;4950856;28;20573;-63
2022/03/07 02:25:26;;;;;;;15.57;7.45;;;;;;;;;;4951519;28;20478;-62
2022/03/07 02:27:53;;;;;;;18.40;6.82;;;;;;;;;;4951800;28;20508;-63
2022/03/07 02:30:19;;;;;;;16.83;7.38;;;;;;;;;;4952112;28;20256;-62
2022/03/07 02:32:45;;;;;;;11.85;6.18;;;;;;;;;;4951738;28;20064;-62
2022/03/07 02:35:12;;;;;;;13.25;6.40;;;;;;;;;;4951184;28;20078;-63
2022/03/07 02:37:40;;;;;;;10.98;6.07;;;;;;;;;;4951801;28;20067;-63
2022/03/07 02:40:06;;;;;;;15.57;6.63;;;;;;;;;;4950880;28;20062;-63
2022/03/07 02:42:37;;;;;;;11.85;6.10;;;;;;;;;;4950958;28;20059;-63
2022/03/07 02:45:04;;;;;;;13.98;6.38;;;;;;;;;;4951894;28;20144;-63
2022/03/07 02:47:30;;;;;;;12.23;6.20;;;;;;;;;;4951596;28;20091;-62
2022/03/07 02:49:56;;;;;;;13.82;5.85;;;;;;;;;;4950473;28;20047;-63
2022/03/07 02:52:23;;;;;;;11.82;6.07;;;;;;;;;;4950555;28;20058;-63
2022/03/07 02:54:49;;;;;;;11.95;5.65;;;;;;;;;;4951566;28;20056;-63
2022/03/07 02:57:16;;;;;;;12.20;6.50;;;;;;;;;;4951901;28;20060;-63
2022/03/07 02:59:46;;;;;;;12.48;6.22;;;;;;;;;;4951411;28;20056;-62
2022/03/07 03:02:13;;;;;;;11.10;5.95;;;;;;;;;;4951122;28;20052;-62
2022/03/07 03:04:40;;;;;;;13.52;6.05;;;;;;;;;;4950886;28;20055;-62
2022/03/07 03:07:07;;;;;;;15.13;7.07;;;;;;;;;;4950482;28;20059;-62
2022/03/07 03:09:33;;;;;;;12.10;5.82;;;;;;;;;;4950261;28;20102;-62
2022/03/07 03:11:59;;;;;;;13.13;6.10;;;;;;;;;;4950657;28;20060;-63
2022/03/07 03:14:25;;;;;;;10.43;5.53;;;;;;;;;;4951184;28;20078;-63
2022/03/07 03:16:52;;;;;;;11.15;6.38;;;;;;;;;;4951244;28;20158;-62
2022/03/07 03:19:20;;;;;;;13.55;6.30;;;;;;;;;;4951027;28;20075;-62
2022/03/07 03:21:46;;;;;;;12.43;6.22;;;;;;;;;;4950199;28;20111;-62
2022/03/07 03:24:13;;;;;;;14.23;6.53;;;;;;;;;;4949924;28;20068;-62
2022/03/07 03:26:39;;;;;;;11.20;6.15;;;;;;;;;;4951259;28;20081;-62
2022/03/07 03:29:05;;;;;;;11.93;6.13;;;;;;;;;;4949613;28;20051;-63
2022/03/07 03:31:32;;;;;;;14.55;6.60;;;;;;;;;;4951036;28;20064;-63
2022/03/07 03:33:58;;;;;;;11.60;6.35;;;;;;;;;;4950239;28;20104;-62
2022/03/07 03:36:24;;;;;;;12.65;6.47;;;;;;;;;;4950830;28;20066;-62
2022/03/07 03:38:51;;;;;;;10.02;5.70;;;;;;;;;;4950241;28;20155;-63
2022/03/07 03:41:17;;;;;;;13.23;6.13;;;;;;;;;;4950310;28;20051;-63
2022/03/07 03:43:43;;;;;;;13.48;5.82;;;;;;;;;;4950965;28;20483;-63
2022/03/07 03:46:10;;;;;;;10.88;5.70;;;;;;;;;;4950676;28;20056;-62
2022/03/07 03:48:36;;;;;;;16.90;5.90;;;;;;;;;;4950539;28;20442;-62
2022/03/07 03:51:03;;;;;;;14.90;6.50;;;;;;;;;;4948106;28;20062;-63
2022/03/07 03:53:29;;;;;;;11.40;6.18;;;;;;;;;;4951000;28;20052;-63
2022/03/07 03:55:55;;;;;;;12.65;6.28;;;;;;;;;;4950809;28;20116;-63
2022/03/07 03:58:22;;;;;;;15.00;6.45;;;;;;;;;;4949941;28;20056;-63
2022/03/07 04:00:48;;;;;;;12.63;6.45;;;;;;;;;;4948954;28;20095;-63
2022/03/07 04:03:14;;;;;;;12.27;6.53;;;;;;;;;;4950842;28;20067;-63
2022/03/07 04:05:41;;;;;;;12.00;6.20;;;;;;;;;;4949499;28;20430;-63
2022/03/07 04:08:07;;;;;;;13.07;6.70;;;;;;;;;;4950450;28;20088;-63
2022/03/07 04:10:34;;;;;;;12.10;6.00;;;;;;;;;;4949869;28;20060;-63
2022/03/07 04:13:00;;;;;;;16.40;6.47;;;;;;;;;;4950331;28;20507;-63
2022/03/07 04:15:26;;;;;;;12.50;6.45;;;;;;;;;;4950267;28;20168;-63
2022/03/07 04:17:54;;;;;;;12.77;6.25;;;;;;;;;;4950027;28;20066;-62
2022/03/07 04:20:20;;;;;;;13.63;6.40;;;;;;;;;;4949088;28;20055;-63
2022/03/07 04:22:46;;;;;;;13.13;6.10;;;;;;;;;;4950468;28;20147;-63
2022/03/07 04:25:13;;;;;;;12.35;6.45;;;;;;;;;;4950334;28;20079;-63
2022/03/07 04:27:39;;;;;;;11.75;6.10;;;;;;;;;;4949838;28;20146;-63
2022/03/07 04:30:06;;;;;;;13.85;6.60;;;;;;;;;;4949858;28;20062;-63
2022/03/07 04:32:36;;;;;;;12.02;6.30;;;;;;;;;;4949499;28;20062;-62
2022/03/07 04:35:05;;;;;;;12.43;6.15;;;;;;;;;;4948710;28;20059;-63
2022/03/07 04:37:32;;;;;;;14.40;7.28;;;;;;;;;;4950041;28;20514;-63
2022/03/07 04:39:59;;;;;;;12.40;6.68;;;;;;;;;;4950176;28;20061;-63
2022/03/07 04:42:25;;;;;;;12.40;6.28;;;;;;;;;;4949484;28;20048;-63
2022/03/07 04:44:52;;;;;;;12.35;6.45;;;;;;;;;;4950294;28;20058;-67
2022/03/07 04:47:18;;;;;;;12.40;6.35;;;;;;;;;;4950163;28;20056;-63
2022/03/07 04:49:44;;;;;;;16.17;6.68;;;;;;;;;;4948413;28;20146;-62
2022/03/07 04:52:11;;;;;;;11.70;6.25;;;;;;;;;;4948297;28;20062;-63
2022/03/07 04:54:37;;;;;;;13.60;7.30;;;;;;;;;;4948657;28;20051;-63
2022/03/07 04:57:05;;;;;;;12.85;7.03;;;;;;;;;;4948970;28;20158;-63
2022/03/07 04:59:31;;;;;;;12.68;6.88;;;;;;;;;;4948141;28;20054;-63
2022/03/07 05:01:57;;;;;;;13.38;7.07;;;;;;;;;;4949671;28;20110;-64
2022/03/07 05:04:24;;;;;;;13.85;6.57;;;;;;;;;;4948101;28;20067;-64
2022/03/07 05:06:55;;;;;;;12.00;6.78;;;;;;;;;;4949762;28;20134;-64
2022/03/07 05:09:21;;;;;;;15.75;6.65;;;;;;;;;;4948368;28;20590;-63
2022/03/07 05:11:48;;;;;;;12.60;7.05;;;;;;;;;;4949232;28;20056;-63
2022/03/07 05:14:14;;;;;;;18.50;7.75;;;;;;;;;;4948922;28;20048;-63
2022/03/07 05:16:40;;;;;;;12.52;6.80;;;;;;;;;;4949425;28;20075;-63
2022/03/07 05:19:07;;;;;;;13.02;6.57;;;;;;;;;;4948762;28;20056;-63
2022/03/07 05:21:33;;;;;;;12.65;6.93;;;;;;;;;;4948331;28;20138;-63
2022/03/07 05:23:59;;;;;;;14.52;7.13;;;;;;;;;;4948682;28;20066;-62
2022/03/07 05:26:26;;;;;;;15.00;6.70;;;;;;;;;;4949339;28;20048;-63
2022/03/07 05:28:52;;;;;;;11.63;7.00;;;;;;;;;;4932014;28;20146;-63
2022/03/07 05:31:19;;;;;;;14.35;6.82;;;;;;;;;;4948285;28;20051;-62
2022/03/07 05:33:45;;;;;;;16.20;9.10;;;;;;;;;;4949071;28;20590;-63
2022/03/07 05:36:12;;;;;;;15.63;7.85;;;;;;;;;;4949332;28;20052;-64
2022/03/07 05:38:39;;;;;;;14.32;7.85;;;;;;;;;;4947849;28;20066;-62
2022/03/07 05:41:05;;;;;;;14.68;7.38;;;;;;;;;;4948353;28;20054;-62
2022/03/07 05:43:31;;;;;;;13.60;7.28;;;;;;;;;;4946091;28;20081;-62
2022/03/07 05:45:58;;;;;;;14.55;7.20;;;;;;;;;;4947487;28;20581;-62
2022/03/07 05:48:24;;;;;;;14.90;8.23;;;;;;;;;;4946734;28;20060;-62
2022/03/07 05:50:50;;;;;;;17.73;7.95;;;;;;;;;;4948098;28;20541;-63
2022/03/07 05:53:21;;;;;;;16.00;8.05;;;;;;;;;;4948605;28;20969;-63
2022/03/07 05:55:49;;;;;;;14.00;7.90;;;;;;;;;;4947955;28;20167;-63
2022/03/07 05:58:15;;;;;;;14.40;7.95;;;;;;;;;;4949062;28;20047;-62
2022/03/07 06:00:42;;;;;;;13.77;7.60;;;;;;;;;;4948354;28;20066;-62
2022/03/07 06:03:08;;;;;;;17.13;7.85;;;;;;;;;;4947844;28;20522;-62
2022/03/07 06:05:35;;;;;;;18.45;8.02;;;;;;;;;;4945984;28;20052;-63
2022/03/07 06:08:02;;;;;;;17.30;8.60;;;;;;;;;;4947262;28;20515;-62
2022/03/07 06:10:29;;;;;;;17.45;7.80;;;;;;;;;;4948311;28;20062;-62
2022/03/07 06:12:55;;;;;;;19.40;9.00;;;;;;;;;;4948954;28;20060;-62
2022/03/07 06:15:22;;;;;;;15.18;8.15;;;;;;;;;;4946591;28;20276;-63
2022/03/07 06:17:50;;;;;;;21.23;9.20;;;;;;;;;;4944909;28;20058;-62
2022/03/07 06:20:16;;;;;;;21.67;8.43;;;;;;;;;;4946954;28;20501;-62
2022/03/07 06:22:43;;;;;;;24.98;9.32;;;;;;;;;;4947782;28;20075;-62
2022/03/07 06:25:09;;;;;;;14.95;8.55;;;;;;;;;;4948765;28;20103;-62
2022/03/07 06:27:35;;;;;;;16.58;8.68;;;;;;;;;;4945934;28;20532;-62
2022/03/07 06:30:02;;;;;;;18.80;9.20;;;;;;;;;;4944167;28;20060;-62
2022/03/07 06:32:28;;;;;;;16.35;9.30;;;;;;;;;;4948855;28;20079;-62
2022/03/07 06:34:55;;;;;;;16.52;8.30;;;;;;;;;;4948478;28;20060;-62
2022/03/07 06:37:23;;;;;;;17.80;9.07;;;;;;;;;;4947440;28;20060;-62
2022/03/07 06:39:49;;;;;;;19.23;8.82;;;;;;;;;;4947605;28;20056;-62
2022/03/07 06:42:16;;;;;;;19.90;9.23;;;;;;;;;;4947390;28;20071;-63
2022/03/07 06:44:42;;;;;;;19.10;9.05;;;;;;;;;;4947292;28;20050;-62
2022/03/07 06:47:08;;;;;;;17.30;8.75;;;;;;;;;;4930331;28;20062;-63
2022/03/07 06:49:35;;;;;;;16.77;8.57;;;;;;;;;;4947208;28;20055;-63
2022/03/07 06:52:01;;;;;;;19.50;9.63;;;;;;;;;;4940727;28;20075;-63
2022/03/07 06:54:28;;;;;;;17.65;8.82;;;;;;;;;;4947513;28;20066;-63
2022/03/07 06:56:55;;;;;;;16.90;9.05;;;;;;;;;;4948186;28;20048;-63
2022/03/07 06:59:21;;;;;;;22.38;9.13;;;;;;;;;;4949631;28;20127;-63
2022/03/07 07:01:47;;;;;;;20.65;9.98;;;;;;;;;;4947689;28;20522;-63
2022/03/07 07:04:14;;;;;;;19.10;8.60;;;;;;;;;;4951800;28;20060;-63
2022/03/07 07:06:40;;;;;;;14.07;8.05;;;;;;;;;;4951365;28;20154;-63
2022/03/07 07:09:07;;;;;;;22.85;9.52;;;;;;;;;;4950757;28;20534;-63
2022/03/07 07:11:33;;;;;;;18.67;8.98;;;;;;;;;;4951820;28;20062;-63
2022/03/07 07:13:59;;;;;;;19.60;9.57;;;;;;;;;;4951270;28;20151;-63
2022/03/07 07:16:26;;;;;;;17.45;9.02;;;;;;;;;;4951587;28;20047;-63
2022/03/07 07:18:52;;;;;;;16.73;8.95;;;;;;;;;;4950773;28;20573;-63
2022/03/07 07:21:18;;;;;;;17.35;9.63;;;;;;;;;;4950927;28;20150;-63
2022/03/07 07:23:45;;;;;;;19.58;9.27;;;;;;;;;;4950714;28;20485;-63
2022/03/07 07:26:11;;;;;;;18.73;9.02;;;;;;;;;;4949969;28;20178;-62
2022/03/07 07:28:38;;;;;;;16.40;8.88;;;;;;;;;;4948846;28;20147;-63
2022/03/07 07:31:04;;;;;;;19.25;9.90;;;;;;;;;;4950264;28;20135;-63
2022/03/07 07:33:30;;;;;;;26.88;9.13;;;;;;;;;;4951206;28;20062;-63
2022/03/07 07:35:57;;;;;;;16.08;9.05;;;;;;;;;;4948927;28;20066;-61
2022/03/07 07:38:23;;;;;;;18.83;9.45;;;;;;;;;;4951135;28;20072;-61
2022/03/07 07:40:50;;;;;;;17.77;9.02;;;;;;;;;;4950521;28;20433;-61
2022/03/07 07:43:16;;;;;;;14.60;8.27;;;;;;;;;;4945905;28;20055;-64
2022/03/07 07:45:43;;;;;;;18.88;8.60;;;;;;;;;;4938676;28;20613;-61
2022/03/07 07:48:09;;;;;;;18.15;10.07;;;;;;;;;;4943110;28;20151;-61
2022/03/07 07:50:35;;;;;;;15.48;8.80;;;;;;;;;;4948685;28;20061;-61
2022/03/07 07:53:02;;;;;;;18.25;9.38;;;;;;;;;;4948861;28;20059;-61
2022/03/07 07:55:29;;;;;;;17.95;9.10;;;;;;;;;;4950202;28;20064;-61
2022/03/07 07:57:55;;;;;;;24.00;9.35;;;;;;;;;;4950496;28;20054;-61
2022/03/07 08:00:21;;;;;;;17.50;9.18;;;;;;;;;;4949068;28;20077;-61
2022/03/07 08:02:48;;;;;;;17.58;9.50;;;;;;;;;;4948284;28;20125;-61
2022/03/07 08:05:16;;;;;;;16.92;9.45;;;;;;;;;;4949313;28;20568;-61
2022/03/07 08:07:43;;;;;;;16.70;8.50;;;;;;;;;;4949754;28;20095;-61
2022/03/07 08:10:10;;;;;;;15.98;8.18;;;;;;;;;;4949798;28;20059;-61
2022/03/07 08:12:36;;;;;;;20.25;9.38;;;;;;;;;;4948198;28;20506;-61
2022/03/07 08:15:05;;;;;;;17.00;8.57;;;;;;;;;;4949265;28;20518;-61
2022/03/07 08:17:32;;;;;;;19.02;9.70;;;;;;;;;;4949296;28;20058;-61
2022/03/07 08:19:58;;;;;;;20.52;9.10;;;;;;;;;;4946544;28;20478;-61
2022/03/07 08:22:25;;;;;;;18.23;9.25;;;;;;;;;;4950538;28;20056;-61
2022/03/07 08:24:51;;;;;;;14.77;8.25;;;;;;;;;;4949105;28;20052;-61
2022/03/07 08:27:17;;;;;;;19.40;9.40;;;;;;;;;;4947781;28;20060;-60
2022/03/07 08:29:44;;;;;;;20.33;8.70;;;;;;;;;;4948158;28;20059;-60
2022/03/07 08:32:10;;;;;;;17.17;8.70;;;;;;;;;;4947948;28;20094;-60
2022/03/07 08:34:38;;;;;;;15.30;7.75;;;;;;;;;;4948240;28;20067;-60
2022/03/07 08:37:04;;;;;;;15.57;9.40;;;;;;;;;;4950071;28;20574;-60
2022/03/07 08:39:30;;;;;;;20.77;9.65;;;;;;;;;;4948930;28;20442;-59
2022/03/07 08:41:57;;;;;;;15.90;9.02;;;;;;;;;;4948551;28;20056;-60
2022/03/07 08:44:23;;;;;;;16.73;8.85;;;;;;;;;;4946700;28;22123;-59
2022/03/07 08:46:50;;;;;;;19.88;8.38;;;;;;;;;;4948779;28;20059;-60
2022/03/07 08:49:16;;;;;;;16.00;7.88;;;;;;;;;;4948769;28;20059;-60
2022/03/07 08:51:44;;;;;;;19.38;9.05;;;;;;;;;;4947208;28;20917;-60
2022/03/07 08:54:11;;;;;;;15.83;8.50;;;;;;;;;;4944661;28;20088;-60
2022/03/07 08:56:37;;;;;;;17.73;9.02;;;;;;;;;;4946388;28;20310;-60
2022/03/07 08:59:03;;;;;;;19.10;9.10;;;;;;;;;;4941910;28;20171;-60
2022/03/07 09:01:30;;;;;;;16.10;9.25;;;;;;;;;;4943229;28;20059;-60
2022/03/07 09:03:57;;;;;;;16.13;8.93;;;;;;;;;;4949412;28;20115;-60
2022/03/07 09:06:23;;;;;;;16.92;7.90;;;;;;;;;;4948512;28;20502;-60
2022/03/07 09:08:50;;;;;;;14.77;8.25;;;;;;;;;;4948018;28;20078;-60
2022/03/07 09:11:20;;;;;;;12.48;7.82;;;;;;;;;;4948085;28;20060;-60
2022/03/07 09:13:47;;;;;;;15.40;8.15;;;;;;;;;;4948025;28;20059;-60
2022/03/07 09:16:16;;;;;;;14.05;7.80;;;;;;;;;;4948491;28;20060;-60
2022/03/07 09:18:42;;;;;;;13.40;8.30;;;;;;;;;;4949104;28;20087;-60
2022/03/07 09:21:09;;;;;;;18.02;8.93;;;;;;;;;;4939797;28;20070;-60
2022/03/07 09:23:37;;;;;;;16.23;8.18;;;;;;;;;;4945600;28;20055;-60
2022/03/07 09:26:05;;;;;;;14.30;7.80;;;;;;;;;;4949850;28;20143;-60
2022/03/07 09:28:33;;;;;;;15.73;8.90;;;;;;;;;;4948880;28;20061;-60
2022/03/07 09:31:00;;;;;;;12.80;7.57;;;;;;;;;;4947789;28;20075;-60
2022/03/07 09:33:27;;;;;;;13.68;7.13;;;;;;;;;;4948212;28;20545;-60
2022/03/07 09:35:53;;;;;;;16.45;6.78;;;;;;;;;;4948888;28;20050;-60
2022/03/07 09:38:20;;;;;;;17.95;7.63;;;;;;;;;;4948345;28;20052;-61
2022/03/07 09:40:46;;;;;;;14.43;7.78;;;;;;;;;;4946779;28;20058;-60
2022/03/07 09:43:14;;;;;;;15.85;7.45;;;;;;;;;;4947494;28;20083;-61
2022/03/07 09:45:41;;;;;;;14.20;7.47;;;;;;;;;;4946052;28;20514;-60
2022/03/07 09:48:08;;;;;;;11.88;6.97;;;;;;;;;;4946513;28;20070;-60
2022/03/07 09:50:34;;;;;;;15.18;7.22;;;;;;;;;;4947314;28;20051;-60
2022/03/07 09:53:00;;;;;;;13.38;7.25;;;;;;;;;;4948002;28;20095;-60
2022/03/07 09:55:28;;;;;;;10.00;5.68;;;;;;;;;;4946534;28;20062;-60
2022/03/07 09:57:54;;;;;;;11.70;5.65;;;;;;;;;;4943219;28;20678;-61
2022/03/07 10:00:20;;;;;;;9.90;5.18;;;;;;;;;;4948021;28;20052;-61
2022/03/07 10:02:53;;;;;;;12.05;5.78;;;;;;;;;;4947309;28;20058;-60
2022/03/07 10:05:20;;;;;;;9.82;5.85;;;;;;;;;;4946565;28;20104;-60
2022/03/07 10:07:46;;;;;;;10.95;6.13;;;;;;;;;;4947808;28;20151;-60
2022/03/07 10:10:13;;;;;;;11.95;5.70;;;;;;;;;;4947953;28;20048;-60
2022/03/07 10:12:49;;;;;;;9.45;5.38;;;;;;;;;;4947227;28;20081;-60
2022/03/07 10:15:17;;;;;;;12.35;5.60;;;;;;;;;;4948086;28;20106;-60
2022/03/07 10:17:47;;;;;;;10.85;6.25;;;;;;;;;;4946954;28;20646;-60
2022/03/07 10:20:15;;;;;;;12.20;5.35;;;;;;;;;;4948227;28;20062;-60
2022/03/07 10:22:55;;;;;;;13.83;5.97;;;;;;;;;;4947317;28;20141;-61
2022/03/07 10:25:23;;;;;;;9.73;5.50;;;;;;;;;;4948113;28;20521;-60
2022/03/07 10:27:50;;;;;;;12.90;5.45;;;;;;;;;;4948883;28;20150;-60
2022/03/07 10:30:18;;;;;;;11.27;5.78;;;;;;;;;;4948081;28;20099;-60
2022/03/07 10:32:50;;;;;;;10.10;5.60;;;;;;;;;;4947773;28;20092;-60
2022/03/07 10:35:21;;;;;;;10.05;4.97;;;;;;;;;;4951923;28;20062;-60
2022/03/07 10:37:47;;;;;;;9.77;5.70;;;;;;;;;;4950980;28;20142;-60
2022/03/07 10:40:21;;;;;;;13.85;5.53;;;;;;;;;;4949530;28;20062;-60
2022/03/07 10:42:48;;;;;;;11.13;5.63;;;;;;;;;;4951065;28;20143;-60
2022/03/07 10:45:15;;;;;;;8.82;5.38;;;;;;;;;;4951044;28;20059;-60
2022/03/07 10:47:42;;;;;;;12.32;5.93;;;;;;;;;;4950198;28;20446;-60
2022/03/07 10:50:08;;;;;;;14.90;6.28;;;;;;;;;;4949323;28;20059;-60
2022/03/07 10:52:35;;;;;;;11.30;5.30;;;;;;;;;;4948910;28;20151;-60
2022/03/07 10:55:02;;;;;;;9.38;5.35;;;;;;;;;;4946408;28;20645;-60
2022/03/07 10:57:34;;;;;;;11.23;6.22;;;;;;;;;;4949344;28;20700;-60
2022/03/07 11:00:04;;;;;;;11.98;5.82;;;;;;;;;;4946442;28;20062;-60
2022/03/07 11:02:36;;;;;;;11.32;6.15;;;;;;;;;;4949902;28;20606;-60
2022/03/07 11:05:03;;;;;;;8.98;5.40;;;;;;;;;;4951049;28;20511;-60
2022/03/07 11:07:30;;;;;;;10.27;5.97;;;;;;;;;;4949036;28;20052;-60
2022/03/07 11:09:56;;;;;;;9.60;5.18;;;;;;;;;;4950022;28;20060;-60
2022/03/07 11:12:22;;;;;;;10.68;6.28;;;;;;;;;;4951192;28;20163;-61
2022/03/07 11:14:50;;;;;;;10.68;6.25;;;;;;;;;;4951370;28;20149;-60
2022/03/07 11:17:18;;;;;;;9.98;5.68;;;;;;;;;;4948992;28;20056;-61
2022/03/07 11:19:46;;;;;;;11.07;6.17;;;;;;;;;;4949844;28;20517;-61
2022/03/07 11:22:14;;;;;;;9.35;5.03;;;;;;;;;;4950957;28;20487;-61
2022/03/07 11:24:41;;;;;;;8.18;5.00;;;;;;;;;;4951083;28;20058;-61
2022/03/07 11:27:08;;;;;;;8.80;5.20;;;;;;;;;;4948442;28;20087;-61
2022/03/07 11:29:35;;;;;;;8.60;4.75;;;;;;;;;;4947138;28;20490;-61
2022/03/07 11:32:03;;;;;;;9.90;4.95;;;;;;;;;;4950286;28;20482;-61
2022/03/07 11:34:30;;;;;;;9.52;4.68;;;;;;;;;;4950100;28;20047;-61
2022/03/07 11:36:56;;;;;;;7.18;3.90;;;;;;;;;;4950932;28;20058;-61
2022/03/07 11:39:35;;;;;;;8.20;4.35;;;;;;;;;;4950706;28;20058;-61
2022/03/07 11:42:22;;;;;;;8.95;4.53;;;;;;;;;;4949188;28;20115;-61
2022/03/07 11:44:49;;;;;;;8.93;4.68;;;;;;;;;;4948625;28;20150;-61
2022/03/07 11:47:17;;;;;;;8.77;4.82;;;;;;;;;;4948757;28;20545;-61
2022/03/07 11:49:44;;;;;;;10.90;5.25;;;;;;;;;;4949508;28;20052;-61
2022/03/07 11:52:14;;;;;;;10.50;4.45;;;;;;;;;;4950102;28;20154;-61
2022/03/07 11:54:54;;;;;;;12.75;5.63;;;;;;;;;;4949916;28;20059;-61
2022/03/07 11:57:50;;;;;;;8.77;4.90;;;;;;;;;;4948490;28;20062;-61
2022/03/07 12:00:21;;;;;;;8.10;4.93;;;;;;;;;;4937933;28;20142;-61
2022/03/07 12:02:51;;;;;;;9.82;5.30;;;;;;;;;;4945353;28;20143;-61
2022/03/07 12:05:21;;;;;;;8.50;4.93;;;;;;;;;;4950284;28;20066;-61
2022/03/07 12:07:47;;;;;;;9.95;4.00;;;;;;;;;;4950024;28;20062;-61
2022/03/07 12:10:13;;;;;;;12.00;4.80;;;;;;;;;;4949663;28;20056;-61
2022/03/07 12:12:40;;;;;;;11.30;4.40;;;;;;;;;;4947813;28;20481;-61
2022/03/07 12:15:26;;;;;;;8.45;4.20;;;;;;;;;;4947595;28;20060;-60
2022/03/07 12:17:53;;;;;;;9.18;4.43;;;;;;;;;;4947318;28;20146;-61
2022/03/07 12:20:20;;;;;;;9.10;4.70;;;;;;;;;;4949293;28;20493;-61
2022/03/07 12:22:46;;;;;;;9.32;5.07;;;;;;;;;;4949111;28;20052;-61
2022/03/07 12:25:13;;;;;;;14.20;4.82;;;;;;;;;;4947465;28;20502;-61
2022/03/07 12:27:41;;;;;;;9.20;4.28;;;;;;;;;;4950068;28;20138;-61
2022/03/07 12:30:08;;;;;;;9.57;4.90;;;;;;;;;;4950590;28;20094;-61
2022/03/07 12:32:36;;;;;;;10.23;4.95;;;;;;;;;;4947455;28;20514;-61
2022/03/07 12:35:02;;;;;;;9.43;5.10;;;;;;;;;;4948834;28;20059;-61
2022/03/07 12:37:29;;;;;;;10.65;5.22;;;;;;;;;;4948153;28;20056;-61
2022/03/07 12:39:57;;;;;;;12.07;4.93;;;;;;;;;;4950080;28;20055;-61
2022/03/07 12:42:28;;;;;;;7.60;5.05;;;;;;;;;;4949180;28;20060;-61
2022/03/07 12:44:59;;;;;;;8.25;5.00;;;;;;;;;;4948811;28;20124;-61
2022/03/07 12:47:30;;;;;;;11.18;5.75;;;;;;;;;;4949663;28;20903;-61
2022/03/07 12:49:57;;;;;;;13.18;5.57;;;;;;;;;;4948905;28;20087;-61
2022/03/07 12:52:25;;;;;;;9.80;5.28;;;;;;;;;;4948295;28;20062;-61
2022/03/07 12:54:52;;;;;;;9.32;5.22;;;;;;;;;;4943769;28;20138;-61
2022/03/07 12:57:19;;;;;;;9.88;5.28;;;;;;;;;;4934685;28;20143;-61
2022/03/07 12:59:48;;;;;;;8.48;4.30;;;;;;;;;;4949411;28;20151;-61
2022/03/07 13:02:14;;;;;;;7.20;4.45;;;;;;;;;;4947991;28;20392;-61
2022/03/07 13:04:41;;;;;;;8.75;4.75;;;;;;;;;;4947785;28;20146;-61
2022/03/07 13:07:12;;;;;;;8.88;4.45;;;;;;;;;;4949705;28;20066;-61
2022/03/07 13:09:39;;;;;;;9.65;4.57;;;;;;;;;;4946938;28;20056;-61
2022/03/07 13:12:06;;;;;;;7.78;4.38;;;;;;;;;;4948374;28;20051;-61
2022/03/07 13:14:34;;;;;;;9.68;4.80;;;;;;;;;;4948436;28;20138;-61
2022/03/07 13:17:19;;;;;;;7.65;4.65;;;;;;;;;;4946431;28;20052;-61
2022/03/07 13:19:50;;;;;;;9.15;4.53;;;;;;;;;;4947420;28;20217;-61
2022/03/07 13:22:17;;;;;;;7.00;3.63;;;;;;;;;;4949097;28;20052;-61
2022/03/07 13:24:54;;;;;;;8.27;4.28;;;;;;;;;;4948892;28;20146;-61
2022/03/07 13:27:22;;;;;;;7.95;4.25;;;;;;;;;;4948884;28;20060;-61
2022/03/07 13:29:49;;;;;;;7.97;4.03;;;;;;;;;;4948868;28;21016;-62
2022/03/07 13:32:17;;;;;;;7.93;4.25;;;;;;;;;;4945829;28;20063;-61
2022/03/07 13:34:55;;;;;;;7.30;3.83;;;;;;;;;;4946387;28;20086;-61
2022/03/07 13:37:22;;;;;;;8.18;3.90;;;;;;;;;;4949042;28;20052;-61
2022/03/07 13:40:02;;;;;;;9.15;4.45;;;;;;;;;;4948491;28;20862;-61
2022/03/07 13:42:48;;;;;;;7.97;4.22;;;;;;;;;;4948538;28;20142;-61
2022/03/07 13:45:19;;;;;;;7.22;4.28;;;;;;;;;;4947009;28;20062;-61
2022/03/07 13:47:46;;;;;;;9.07;4.68;;;;;;;;;;4948213;28;20059;-61
2022/03/07 13:50:15;;;;;;;8.20;4.20;;;;;;;;;;4947848;28;20052;-61
2022/03/07 13:52:45;;;;;;;7.88;4.40;;;;;;;;;;4948630;28;20091;-61
2022/03/07 13:55:14;;;;;;;8.43;4.00;;;;;;;;;;4945855;28;20062;-61
2022/03/07 13:57:41;;;;;;;9.20;4.10;;;;;;;;;;4943609;28;20058;-61
2022/03/07 14:00:08;;;;;;;9.10;5.13;;;;;;;;;;4947812;28;20143;-62
2022/03/07 14:02:36;;;;;;;9.88;4.97;;;;;;;;;;4948907;28;20060;-61
2022/03/07 14:05:03;;;;;;;10.82;4.55;;;;;;;;;;4949395;28;20586;-61
2022/03/07 14:07:30;;;;;;;8.75;4.57;;;;;;;;;;4947468;28;20482;-61
2022/03/07 14:10:09;;;;;;;8.15;4.35;;;;;;;;;;4951278;28;20059;-61
2022/03/07 14:12:37;;;;;;;8.80;4.63;;;;;;;;;;4954935;28;20067;-61
2022/03/07 14:15:27;;;;;;;9.18;4.57;;;;;;;;;;4935666;29;20068;-61
2022/03/07 14:18:04;;;;;;;6.70;3.67;;;;;;;;;;4949681;28;20055;-61
2022/03/07 14:20:31;;;;;;;9.13;4.00;;;;;;;;;;4954382;28;20593;-61
2022/03/07 14:23:03;;;;;;;7.15;4.03;;;;;;;;;;4953322;28;20063;-61
2022/03/07 14:25:29;;;;;;;9.70;5.05;;;;;;;;;;4954511;28;20075;-61
2022/03/07 14:27:56;;;;;;;8.80;4.78;;;;;;;;;;4954678;28;20126;-61
2022/03/07 14:30:22;;;;;;;6.75;4.05;;;;;;;;;;4955193;28;20055;-61
2022/03/07 14:32:49;;;;;;;8.82;3.95;;;;;;;;;;4954016;28;20048;-61
2022/03/07 14:35:16;;;;;;;8.50;4.03;;;;;;;;;;4954689;28;20066;-61